Etusivu
METAR-TAF:

METAR-TAF

Lentoasemat :

Ghat, Libya

Leveyspiiri: 25-08N, Pituuspiiri: 010-09E, korkeus merenpinnasta: 699 m

METAR: puuttuu

Aika: 01:47 (23:47 UTC)

Sääennuste

Tämä raportti tehtiin 3 tuntia ja 47 minuuttia sitten, kello 20.00 UTC
Ennuste voimassa 17. päivästä klo 21 UTC - 18. päivään klo 06 UTC
Tuuli 12 kn idästä/koillisesta
Näkyvyys: 8000 m
Tulossa
18. päivästä klo 00 UTC - 18. päivään klo 02 UTC
Tuuli 2 kn eri suunnista

TAF: HLGT 172000Z 1721/1806 06012KT 8000 NSC BECMG 1800/1802 VRB02KT

Säähavainnot ja -ennusteet yli 4000 lentoasemalta (METAR- ja TAF-raportit).

Käytössä olevat sääasemat on merkitty karttaan keltaisilla ja punaisilla pisteillä.

Aseta hiiri pisteen päälle nähdäksesi sääaseman nimen.

Klikkaa sitten nähdäksesi säähavainnot ja -ennusteet.

Kartan vaihtaminen: klikkaa mustalla rastilla varustettuja vihreitä pisteitä, niin voit zoomata sisään; viivalla varustettua vihreää pistettä, niin voit zoomata ulos tai vihreitä nuolia, niin pääset viereisille kartoille.


METAR-TAF: